createdAt,value
2019-05-16T00:00:04.011Z,30.74
2019-05-16T00:02:38.767Z,30.69
2019-05-16T00:05:13.220Z,30.58
2019-05-16T00:07:49.394Z,30.51
2019-05-16T00:10:22.625Z,30.41
2019-05-16T00:13:24.202Z,30.25
2019-05-16T00:15:59.211Z,30.12
2019-05-16T00:18:41.192Z,29.99
2019-05-16T00:21:13.432Z,29.94
2019-05-16T00:23:44.416Z,29.73
2019-05-16T00:26:14.953Z,29.58
2019-05-16T00:28:45.654Z,29.53
2019-05-16T00:31:15.580Z,29.56
2019-05-16T00:33:49.406Z,29.46
2019-05-16T00:36:20.572Z,29.40
2019-05-16T00:38:51.073Z,29.28
2019-05-16T00:41:22.801Z,29.22
2019-05-16T00:43:57.698Z,29.25
2019-05-16T00:46:28.582Z,29.23
2019-05-16T00:48:58.885Z,29.18
2019-05-16T00:51:29.692Z,29.21
2019-05-16T00:53:59.259Z,29.22
2019-05-16T00:56:30.533Z,29.25
2019-05-16T00:59:02.184Z,29.31
2019-05-16T01:01:31.950Z,29.39
2019-05-16T01:04:01.548Z,29.45
2019-05-16T01:06:31.611Z,29.58
2019-05-16T01:09:01.232Z,29.71
2019-05-16T01:11:30.787Z,29.77
2019-05-16T01:14:00.491Z,29.84
2019-05-16T01:16:30.245Z,29.89
2019-05-16T01:19:00.012Z,30.01
2019-05-16T01:21:29.862Z,30.02
2019-05-16T01:24:00.306Z,30.11
2019-05-16T01:26:30.238Z,30.13
2019-05-16T01:28:59.800Z,30.27
2019-05-16T01:31:29.455Z,30.36
2019-05-16T01:33:58.987Z,30.47
2019-05-16T01:36:36.864Z,30.54
2019-05-16T01:38:59.691Z,30.53
2019-05-16T01:41:29.283Z,30.54
2019-05-16T01:43:58.897Z,30.56
2019-05-16T01:46:28.647Z,30.61
2019-05-16T01:48:58.186Z,30.78
2019-05-16T01:51:28.819Z,30.84
2019-05-16T01:53:58.468Z,30.91
2019-05-16T01:56:28.185Z,30.96
2019-05-16T01:58:58.261Z,31.09
2019-05-16T02:01:28.844Z,31.12
2019-05-16T02:03:58.761Z,31.15
2019-05-16T02:06:28.822Z,31.22
2019-05-16T02:08:58.505Z,31.29
2019-05-16T02:11:28.527Z,31.41
2019-05-16T02:13:58.586Z,31.57
2019-05-16T02:16:28.380Z,31.59
2019-05-16T02:18:58.868Z,31.79
2019-05-16T02:21:28.777Z,32.00
2019-05-16T02:23:59.584Z,32.16
2019-05-16T02:26:29.699Z,32.33
2019-05-16T02:29:00.889Z,32.42
2019-05-16T02:31:31.488Z,32.60
2019-05-16T02:34:04.661Z,32.74
2019-05-16T02:36:32.444Z,32.90
2019-05-16T02:39:02.306Z,33.12
2019-05-16T02:41:32.167Z,33.24
2019-05-16T02:44:01.928Z,33.27
2019-05-16T02:46:31.511Z,33.50
2019-05-16T02:49:01.311Z,33.53
2019-05-16T02:51:31.509Z,33.70
2019-05-16T02:54:01.626Z,33.79
2019-05-16T02:56:31.916Z,33.85
2019-05-16T02:59:01.946Z,33.90
2019-05-16T03:01:32.277Z,33.92
2019-05-16T03:04:02.050Z,34.08
2019-05-16T03:06:32.633Z,34.21
2019-05-16T03:09:05.343Z,34.09
2019-05-16T03:11:36.908Z,34.15
2019-05-16T03:14:07.165Z,34.17
2019-05-16T03:16:41.749Z,34.23
2019-05-16T03:19:14.283Z,34.27
2019-05-16T03:21:45.665Z,34.22
2019-05-16T03:24:15.546Z,34.23
2019-05-16T03:26:45.599Z,34.23
2019-05-16T03:29:15.407Z,34.26
2019-05-16T03:31:45.725Z,34.33
2019-05-16T03:34:17.122Z,34.50
2019-05-16T03:36:47.513Z,34.58
2019-05-16T03:39:17.308Z,34.78
2019-05-16T03:41:47.239Z,34.97
2019-05-16T03:44:20.801Z,35.05
2019-05-16T03:46:51.889Z,35.19
2019-05-16T03:49:21.206Z,35.25
2019-05-16T03:51:51.666Z,35.25
2019-05-16T03:54:21.441Z,35.36
2019-05-16T03:56:51.490Z,35.32
2019-05-16T03:59:21.686Z,35.45
2019-05-16T04:01:51.641Z,35.52
2019-05-16T04:04:22.008Z,35.61
2019-05-16T04:06:51.780Z,35.71
2019-05-16T04:09:21.589Z,35.79
2019-05-16T04:11:51.346Z,35.97
2019-05-16T04:14:21.599Z,36.08
2019-05-16T04:16:51.945Z,35.96
2019-05-16T04:19:21.611Z,36.01
2019-05-16T04:21:51.386Z,36.07
2019-05-16T04:24:21.862Z,36.20
2019-05-16T04:26:52.043Z,36.27
2019-05-16T04:29:21.903Z,36.25
2019-05-16T04:31:51.715Z,36.36
2019-05-16T04:34:21.677Z,36.48
2019-05-16T04:36:51.874Z,36.57
2019-05-16T04:39:23.802Z,36.66
2019-05-16T04:41:54.371Z,36.75
2019-05-16T04:44:25.437Z,36.61
2019-05-16T04:46:55.347Z,36.62
2019-05-16T04:49:27.721Z,36.53
2019-05-16T04:52:11.658Z,36.49
2019-05-16T04:54:47.144Z,36.56
2019-05-16T04:57:20.618Z,36.52
2019-05-16T04:59:56.767Z,36.50
2019-05-16T05:02:30.647Z,36.49
2019-05-16T05:05:01.313Z,36.44
2019-05-16T05:07:32.127Z,36.33
2019-05-16T05:10:03.915Z,36.20
2019-05-16T05:12:35.295Z,36.14
2019-05-16T05:15:10.406Z,35.99
2019-05-16T05:17:42.694Z,36.02
2019-05-16T05:20:13.846Z,35.99
2019-05-16T05:22:44.208Z,35.98
2019-05-16T05:25:14.288Z,36.00
2019-05-16T05:27:45.267Z,35.95
2019-05-16T05:30:15.710Z,36.01
2019-05-16T05:32:47.005Z,36.08
2019-05-16T05:35:20.524Z,36.11
2019-05-16T05:37:53.097Z,36.15
2019-05-16T05:40:25.121Z,36.21
2019-05-16T05:42:55.988Z,36.28
2019-05-16T05:45:47.389Z,36.35
2019-05-16T05:48:21.587Z,36.50
2019-05-16T05:50:53.793Z,36.52
2019-05-16T05:53:23.853Z,36.55
2019-05-16T05:55:53.689Z,36.58
2019-05-16T05:58:24.912Z,36.57
2019-05-16T06:01:10.870Z,36.53
2019-05-16T06:07:54.738Z,36.36
2019-05-16T06:11:10.288Z,36.04
2019-05-16T06:13:43.608Z,35.80
2019-05-16T06:16:13.519Z,35.46
2019-05-16T06:18:45.558Z,35.32
2019-05-16T06:21:20.310Z,35.12
2019-05-16T06:23:50.889Z,34.90
2019-05-16T06:26:21.175Z,34.74
2019-05-16T06:28:53.482Z,34.65
2019-05-16T06:31:24.521Z,34.58
2019-05-16T06:33:55.020Z,34.79
2019-05-16T06:36:24.563Z,34.94
2019-05-16T06:38:54.275Z,35.18
2019-05-16T06:41:23.735Z,35.38
2019-05-16T06:43:53.275Z,35.52
2019-05-16T06:46:23.050Z,35.64
2019-05-16T06:48:52.721Z,35.67
2019-05-16T06:51:23.660Z,35.63
2019-05-16T06:53:53.296Z,35.51
2019-05-16T06:56:23.320Z,35.39
2019-05-16T06:58:52.793Z,35.31
2019-05-16T07:01:22.385Z,35.19
2019-05-16T07:03:51.947Z,35.12
2019-05-16T07:06:46.027Z,34.99
2019-05-16T07:08:52.627Z,34.83
2019-05-16T07:11:22.040Z,34.78
2019-05-16T07:13:52.084Z,34.79
2019-05-16T07:16:21.590Z,34.82
2019-05-16T07:18:51.154Z,34.71
2019-05-16T07:21:20.625Z,34.73
2019-05-16T07:23:51.210Z,34.57
2019-05-16T07:26:20.804Z,34.20
2019-05-16T07:28:51.626Z,33.65
2019-05-16T07:31:22.571Z,33.36
2019-05-16T07:33:52.305Z,33.08
2019-05-16T07:36:21.806Z,32.85
2019-05-16T07:38:51.340Z,32.71
2019-05-16T07:41:20.724Z,32.37
2019-05-16T07:43:50.664Z,31.92
2019-05-16T07:46:20.897Z,31.76
2019-05-16T07:48:51.792Z,31.53
2019-05-16T07:51:21.754Z,31.31
2019-05-16T07:53:51.116Z,31.14
2019-05-16T07:56:20.767Z,30.95
2019-05-16T07:58:50.871Z,30.81
2019-05-16T08:01:20.763Z,30.59
2019-05-16T08:03:50.916Z,30.41
2019-05-16T08:06:20.985Z,30.37
2019-05-16T08:08:51.253Z,30.26
2019-05-16T08:11:23.699Z,30.11
2019-05-16T08:13:52.259Z,30.05
2019-05-16T08:16:21.889Z,29.85
2019-05-16T08:18:51.280Z,29.75
2019-05-16T08:21:20.741Z,29.67
2019-05-16T08:26:21.990Z,29.58
2019-05-16T08:28:51.478Z,29.35
2019-05-16T08:33:54.942Z,29.24
2019-05-16T08:36:23.559Z,29.02
2019-05-16T08:38:52.986Z,28.96
2019-05-16T08:41:22.468Z,28.93
2019-05-16T08:43:53.399Z,28.66
2019-05-16T08:46:23.365Z,28.68
2019-05-16T08:48:54.150Z,28.40
2019-05-16T08:51:24.165Z,28.50
2019-05-16T08:53:53.648Z,28.58
2019-05-16T08:56:23.108Z,28.57
2019-05-16T09:01:23.807Z,28.05
2019-05-16T09:03:53.407Z,27.89
2019-05-16T09:06:23.277Z,28.01
2019-05-16T09:08:52.879Z,28.01
2019-05-16T09:10:25.130Z,28.38
2019-05-16T09:11:35.586Z,28.02
2019-05-16T09:13:53.471Z,27.82
2019-05-16T09:16:22.896Z,27.58
2019-05-16T09:18:38.454Z,29.34
2019-05-16T09:18:52.421Z,27.30
2019-05-16T09:21:23.916Z,27.05
2019-05-16T09:23:53.375Z,27.00
2019-05-16T09:26:24.004Z,26.85
2019-05-16T09:28:53.426Z,26.88
2019-05-16T09:31:22.942Z,26.85
2019-05-16T09:33:52.464Z,26.79
2019-05-16T09:36:21.908Z,26.88
2019-05-16T09:38:51.573Z,26.71
2019-05-16T09:41:21.081Z,26.67
2019-05-16T09:43:50.761Z,26.67
2019-05-16T09:46:20.231Z,26.69
2019-05-16T09:48:49.737Z,26.72
2019-05-16T09:51:21.327Z,26.65
2019-05-16T09:53:50.328Z,26.55
2019-05-16T09:56:19.719Z,26.49
2019-05-16T09:58:49.137Z,26.59
2019-05-16T10:01:18.675Z,26.71
2019-05-16T10:03:48.143Z,26.54
2019-05-16T10:06:19.242Z,26.30
2019-05-16T10:08:48.778Z,26.23
2019-05-16T10:11:18.416Z,26.32
2019-05-16T10:13:47.827Z,26.43
2019-05-16T10:16:17.259Z,26.40
2019-05-16T10:18:47.601Z,26.35
2019-05-16T10:21:20.473Z,26.35
2019-05-16T10:23:48.327Z,26.29
2019-05-16T10:26:19.516Z,26.35
2019-05-16T10:28:49.079Z,26.20
2019-05-16T10:31:18.557Z,26.23
2019-05-16T10:33:48.024Z,25.92
2019-05-16T10:36:21.422Z,25.64
2019-05-16T10:38:48.734Z,25.31
2019-05-16T10:41:18.202Z,25.25
2019-05-16T10:43:47.717Z,25.23
2019-05-16T10:46:17.862Z,24.81
2019-05-16T10:48:47.491Z,24.45
2019-05-16T10:51:19.490Z,24.45
2019-05-16T10:54:13.146Z,24.23
2019-05-16T10:56:20.344Z,24.31
2019-05-16T10:59:14.763Z,24.09
2019-05-16T11:01:27.347Z,23.98
2019-05-16T11:03:52.423Z,23.66
2019-05-16T11:06:25.599Z,23.79
2019-05-16T11:08:57.133Z,23.82
2019-05-16T11:11:27.348Z,23.86
2019-05-16T11:13:57.149Z,24.15
2019-05-16T11:16:27.483Z,24.35
2019-05-16T11:19:13.765Z,24.19
2019-05-16T11:21:28.400Z,24.17
2019-05-16T11:23:57.907Z,24.35
2019-05-16T11:26:30.098Z,24.64
2019-05-16T11:28:58.683Z,24.94
2019-05-16T11:31:28.176Z,25.04
2019-05-16T11:33:57.771Z,25.20
2019-05-16T11:36:27.497Z,25.44
2019-05-16T11:39:01.424Z,25.37
2019-05-16T11:41:28.404Z,25.47
2019-05-16T11:43:57.888Z,25.69
2019-05-16T11:46:28.283Z,25.97
2019-05-16T11:48:57.719Z,26.10
2019-05-16T11:51:27.367Z,26.35
2019-05-16T11:54:00.066Z,26.80
2019-05-16T11:56:30.737Z,26.83
2019-05-16T11:59:00.490Z,26.78
2019-05-16T12:01:30.005Z,26.90
2019-05-16T12:03:59.586Z,26.87
2019-05-16T12:06:29.268Z,26.94
2019-05-16T12:08:58.908Z,27.09
2019-05-16T12:11:28.447Z,27.10
2019-05-16T12:13:58.077Z,27.01
2019-05-16T12:16:27.749Z,27.40
2019-05-16T12:18:57.292Z,27.71
2019-05-16T12:21:27.434Z,27.81
2019-05-16T12:23:57.296Z,27.89
2019-05-16T12:26:28.153Z,27.45
2019-05-16T12:28:58.088Z,27.02
2019-05-16T12:31:27.490Z,26.60
2019-05-16T12:33:59.732Z,26.46
2019-05-16T12:36:31.323Z,26.50
2019-05-16T12:38:59.494Z,26.35
2019-05-16T12:41:28.978Z,26.55
2019-05-16T12:44:00.258Z,26.29
2019-05-16T12:46:29.935Z,25.43
2019-05-16T12:48:59.523Z,24.97
2019-05-16T12:51:29.028Z,24.15
2019-05-16T12:53:58.684Z,23.61
2019-05-16T12:56:28.114Z,23.41
2019-05-16T12:58:57.659Z,23.23
2019-05-16T13:01:33.998Z,23.16
2019-05-16T13:03:58.403Z,23.50
2019-05-16T13:06:27.895Z,23.21
2019-05-16T13:08:57.519Z,22.69
2019-05-16T13:11:27.163Z,21.75
2019-05-16T13:14:05.537Z,21.48
2019-05-16T13:16:28.193Z,20.80
2019-05-16T13:18:58.082Z,20.84
2019-05-16T13:21:27.760Z,20.61
2019-05-16T13:23:57.672Z,20.55
2019-05-16T13:26:29.773Z,20.22
2019-05-16T13:28:59.327Z,19.75
2019-05-16T13:31:28.982Z,19.45
2019-05-16T13:33:58.860Z,19.33
2019-05-16T13:36:28.415Z,19.32
2019-05-16T13:38:58.224Z,18.99
2019-05-16T13:41:30.248Z,18.84
2019-05-16T13:44:12.874Z,18.49
2019-05-16T13:46:52.486Z,18.56
2019-05-16T13:49:22.417Z,18.52
2019-05-16T13:51:52.797Z,17.49
2019-05-16T13:54:22.747Z,17.00
2019-05-16T13:59:53.588Z,16.32
2019-05-16T14:02:26.709Z,15.66
2019-05-16T14:04:56.988Z,15.52
2019-05-16T14:07:39.987Z,15.40
2019-05-16T14:10:12.010Z,15.23
2019-05-16T14:12:41.591Z,15.03
2019-05-16T14:15:12.653Z,14.96
2019-05-16T14:17:42.115Z,14.97
2019-05-16T14:20:17.651Z,14.78
2019-05-16T14:22:57.342Z,14.83
2019-05-16T14:25:27.265Z,15.05
2019-05-16T14:27:56.977Z,15.45
2019-05-16T14:30:28.528Z,15.35
2019-05-16T14:33:01.146Z,15.07
2019-05-16T14:35:29.795Z,15.17
2019-05-16T14:38:00.844Z,15.54
2019-05-16T14:40:34.033Z,15.80
2019-05-16T14:43:03.830Z,16.02
2019-05-16T14:45:33.543Z,15.90
2019-05-16T14:48:03.182Z,16.53
2019-05-16T14:50:32.952Z,16.53
2019-05-16T14:53:02.581Z,16.60
2019-05-16T14:55:32.280Z,16.61
2019-05-16T14:58:01.997Z,16.73
2019-05-16T15:00:31.584Z,16.88
2019-05-16T15:03:01.100Z,16.78
2019-05-16T15:05:30.682Z,16.80
2019-05-16T15:08:00.707Z,16.79
2019-05-16T15:10:30.174Z,16.81
2019-05-16T15:13:35.057Z,16.91
2019-05-16T15:16:04.682Z,16.76
2019-05-16T15:18:34.697Z,16.76
2019-05-16T15:21:07.973Z,16.82
2019-05-16T15:23:35.901Z,16.72
2019-05-16T15:26:09.034Z,16.85
2019-05-16T15:28:37.751Z,17.06
2019-05-16T15:31:07.468Z,17.15
2019-05-16T15:33:37.885Z,17.26
2019-05-16T15:36:08.569Z,17.11
2019-05-16T15:38:38.569Z,17.04
2019-05-16T15:41:08.688Z,17.36
2019-05-16T15:43:38.484Z,17.61
2019-05-16T15:46:08.721Z,17.81
2019-05-16T15:48:38.282Z,17.91
2019-05-16T15:51:09.023Z,17.91
2019-05-16T15:53:44.764Z,18.14
2019-05-16T15:56:37.419Z,17.87
2019-05-16T15:59:09.758Z,17.87
2019-05-16T16:01:38.096Z,18.02
2019-05-16T16:04:07.509Z,18.01
2019-05-16T16:06:37.997Z,18.08
2019-05-16T16:09:10.107Z,18.12
2019-05-16T16:11:39.759Z,18.41
2019-05-16T16:14:09.355Z,18.61
2019-05-16T16:16:38.896Z,18.61
2019-05-16T16:19:08.385Z,18.42
2019-05-16T16:21:38.207Z,18.42
2019-05-16T16:24:09.155Z,18.54
2019-05-16T16:26:41.015Z,18.37
2019-05-16T16:29:10.446Z,18.51
2019-05-16T16:31:39.909Z,18.65
2019-05-16T16:34:09.300Z,18.65
2019-05-16T16:36:38.756Z,18.55
2019-05-16T16:39:08.768Z,18.43
2019-05-16T16:41:38.220Z,18.37
2019-05-16T16:44:07.860Z,18.39
2019-05-16T16:46:37.664Z,18.43
2019-05-16T16:49:07.621Z,18.58
2019-05-16T16:51:37.672Z,18.69
2019-05-16T16:54:07.639Z,18.60
2019-05-16T16:56:37.396Z,18.61
2019-05-16T16:59:06.896Z,18.63
2019-05-16T17:01:37.386Z,18.57
2019-05-16T17:04:07.209Z,18.53
2019-05-16T17:06:37.618Z,18.59
2019-05-16T17:09:07.873Z,18.68
2019-05-16T17:11:37.416Z,18.84
2019-05-16T17:14:07.058Z,19.06
2019-05-16T17:16:37.746Z,19.12
2019-05-16T17:19:07.850Z,19.28
2019-05-16T17:21:37.352Z,19.53
2019-05-16T17:24:06.845Z,19.74
2019-05-16T17:26:37.867Z,19.87
2019-05-16T17:29:07.919Z,19.90
2019-05-16T17:31:37.563Z,19.70
2019-05-16T17:34:08.418Z,19.75
2019-05-16T17:36:38.034Z,19.49
2019-05-16T17:39:07.696Z,19.50
2019-05-16T17:41:37.145Z,19.50
2019-05-16T17:44:06.952Z,19.66
2019-05-16T17:46:40.633Z,19.96
2019-05-16T17:49:08.086Z,20.07
2019-05-16T17:51:37.629Z,20.09
2019-05-16T17:54:07.172Z,19.88
2019-05-16T17:56:37.061Z,19.79
2019-05-16T17:59:07.321Z,19.91
2019-05-16T18:01:37.239Z,19.88
2019-05-16T18:04:06.732Z,19.89
2019-05-16T18:06:37.087Z,19.86
2019-05-16T18:09:08.405Z,20.04
2019-05-16T18:11:39.688Z,19.83
2019-05-16T18:14:17.162Z,19.50
2019-05-16T18:16:53.706Z,19.54
2019-05-16T18:19:20.802Z,19.54
2019-05-16T18:21:50.375Z,19.58
2019-05-16T18:24:19.883Z,19.68
2019-05-16T18:26:50.513Z,19.68
2019-05-16T18:29:20.119Z,19.77
2019-05-16T18:31:49.546Z,19.88
2019-05-16T18:34:19.092Z,19.93
2019-05-16T18:36:48.573Z,19.94
2019-05-16T18:39:17.991Z,20.02
2019-05-16T18:41:47.626Z,20.08
2019-05-16T18:44:17.339Z,20.14
2019-05-16T18:46:47.748Z,20.30
2019-05-16T18:49:17.135Z,20.49
2019-05-16T18:51:46.694Z,20.57
2019-05-16T18:54:17.259Z,20.57
2019-05-16T18:56:47.475Z,20.60
2019-05-16T18:59:17.037Z,20.53
2019-05-16T19:01:47.033Z,20.61
2019-05-16T19:04:17.591Z,20.60
2019-05-16T19:06:47.353Z,20.69
2019-05-16T19:09:16.867Z,20.85
2019-05-16T19:11:46.230Z,20.85
2019-05-16T19:14:16.919Z,20.76
2019-05-16T19:16:49.018Z,20.72
2019-05-16T19:19:18.555Z,20.84
2019-05-16T19:21:48.318Z,20.93
2019-05-16T19:24:17.729Z,21.04
2019-05-16T19:26:47.266Z,21.12
2019-05-16T19:29:17.400Z,21.43
2019-05-16T19:31:49.914Z,21.63
2019-05-16T19:34:18.045Z,21.92
2019-05-16T19:36:47.951Z,22.33
2019-05-16T19:39:17.652Z,22.58
2019-05-16T19:41:48.209Z,22.92
2019-05-16T19:44:17.583Z,23.26
2019-05-16T19:46:47.085Z,23.51
2019-05-16T19:49:16.431Z,23.72
2019-05-16T19:51:48.946Z,23.91
2019-05-16T19:54:17.340Z,24.08
2019-05-16T19:56:47.038Z,24.36
2019-05-16T19:59:16.894Z,24.62
2019-05-16T20:01:46.589Z,24.72
2019-05-16T20:04:18.311Z,24.91
2019-05-16T20:06:47.582Z,24.95
2019-05-16T20:09:17.253Z,25.13
2019-05-16T20:11:47.614Z,25.76
2019-05-16T20:14:19.658Z,26.36
2019-05-16T20:16:48.250Z,26.70
2019-05-16T20:19:17.788Z,26.81
2019-05-16T20:21:47.674Z,27.01
2019-05-16T20:24:17.172Z,27.27
2019-05-16T20:26:46.637Z,27.87
2019-05-16T20:29:17.116Z,28.32
2019-05-16T20:31:47.465Z,28.65
2019-05-16T20:34:17.765Z,28.91
2019-05-16T20:36:47.549Z,29.45
2019-05-16T20:39:17.382Z,30.09
2019-05-16T20:41:47.484Z,30.02
2019-05-16T20:44:17.566Z,30.22
2019-05-16T20:46:49.692Z,31.60
2019-05-16T20:49:18.172Z,31.63
2019-05-16T20:51:50.005Z,31.30
2019-05-16T20:54:18.807Z,31.21
2019-05-16T20:56:49.428Z,31.53
2019-05-16T20:59:19.168Z,32.03
2019-05-16T21:01:49.237Z,32.28
2019-05-16T21:04:19.202Z,32.57
2019-05-16T21:07:00.207Z,32.55
2019-05-16T21:09:20.009Z,32.68
2019-05-16T21:11:50.124Z,33.75
2019-05-16T21:14:19.675Z,34.00
2019-05-16T21:16:49.644Z,34.02
2019-05-16T21:19:19.447Z,34.34
2019-05-16T21:21:48.957Z,34.27
2019-05-16T21:24:18.512Z,34.33
2019-05-16T21:26:47.924Z,34.61
2019-05-16T21:29:19.630Z,34.38
2019-05-16T21:31:48.542Z,34.59
2019-05-16T21:34:19.219Z,34.38
2019-05-16T21:36:48.741Z,34.21
2019-05-16T21:39:18.292Z,34.41
2019-05-16T21:41:47.885Z,34.81
2019-05-16T21:44:17.371Z,34.91
2019-05-16T21:46:47.080Z,35.35
2019-05-16T21:49:19.662Z,35.69
2019-05-16T21:51:48.132Z,35.70
2019-05-16T21:54:17.633Z,35.67
2019-05-16T21:56:47.027Z,35.50
2019-05-16T21:59:16.439Z,35.73
2019-05-16T22:01:47.307Z,35.89
2019-05-16T22:04:17.146Z,36.15
2019-05-16T22:06:47.486Z,36.78
2019-05-16T22:09:17.101Z,36.79
2019-05-16T22:11:46.672Z,36.63
2019-05-16T22:14:17.587Z,36.66
2019-05-16T22:16:47.032Z,36.98
2019-05-16T22:19:16.792Z,37.38
2019-05-16T22:21:46.240Z,37.45
2019-05-16T22:24:17.190Z,37.27
2019-05-16T22:26:46.998Z,37.13
2019-05-16T22:29:17.673Z,37.24
2019-05-16T22:31:47.287Z,37.50
2019-05-16T22:34:17.100Z,38.01
2019-05-16T22:36:49.241Z,38.29
2019-05-16T22:39:18.116Z,38.24
2019-05-16T22:41:47.874Z,38.47
2019-05-16T22:44:17.880Z,38.45
2019-05-16T22:46:47.405Z,38.56
2019-05-16T22:49:17.216Z,38.44
2019-05-16T22:51:46.685Z,38.84
2019-05-16T22:54:17.178Z,38.83
2019-05-16T22:56:46.905Z,38.68
2019-05-16T22:59:16.697Z,38.64
2019-05-16T23:01:46.310Z,38.54
2019-05-16T23:04:16.787Z,38.76
2019-05-16T23:06:46.304Z,38.92
2019-05-16T23:09:16.407Z,38.97
2019-05-16T23:11:45.942Z,39.08
2019-05-16T23:14:17.101Z,39.32
2019-05-16T23:16:46.862Z,39.40
2019-05-16T23:19:17.130Z,39.53
2019-05-16T23:21:47.500Z,39.55
2019-05-16T23:24:17.486Z,39.54
2019-05-16T23:26:47.107Z,39.44
2019-05-16T23:29:17.141Z,39.33
2019-05-16T23:31:47.287Z,39.32
2019-05-16T23:34:18.748Z,39.31
2019-05-16T23:36:48.439Z,39.34
2019-05-16T23:39:17.895Z,39.32
2019-05-16T23:41:47.558Z,39.31
2019-05-16T23:44:17.057Z,39.38
2019-05-16T23:46:47.082Z,39.43
2019-05-16T23:49:17.199Z,39.29
2019-05-16T23:51:47.337Z,39.32
2019-05-16T23:54:17.408Z,39.14
2019-05-16T23:56:47.056Z,39.27
2019-05-16T23:59:17.156Z,39.09
